sensor_id;sensor_type;location;lat;lon;timestamp;temperature;humidity
30385;DHT22;17181;51.002;4.096;2023-04-23T06:01:10;11.40;99.90
30385;DHT22;17181;51.002;4.096;2023-04-23T06:12:03;11.60;99.90
30385;DHT22;17181;51.002;4.096;2023-04-23T06:14:32;11.70;99.90
30385;DHT22;17181;51.002;4.096;2023-04-23T06:41:27;12.30;99.90
30385;DHT22;17181;51.002;4.096;2023-04-23T06:47:26;12.40;99.90
30385;DHT22;17181;51.002;4.096;2023-04-23T06:50:08;12.50;99.90
30385;DHT22;17181;51.002;4.096;2023-04-23T06:52:34;12.50;99.90
30385;DHT22;17181;51.002;4.096;2023-04-23T06:55:01;12.60;99.90
30385;DHT22;17181;51.002;4.096;2023-04-23T07:09:57;13.00;99.90
30385;DHT22;17181;51.002;4.096;2023-04-23T07:45:03;13.90;99.90
30385;DHT22;17181;51.002;4.096;2023-04-23T07:47:30;14.00;99.90
30385;DHT22;17181;51.002;4.096;2023-04-23T07:49:56;14.10;99.90
30385;DHT22;17181;51.002;4.096;2023-04-23T07:52:22;14.10;99.90
30385;DHT22;17181;51.002;4.096;2023-04-23T12:52:13;14.80;99.90
30385;DHT22;17181;51.002;4.096;2023-04-23T12:54:39;14.70;99.90
30385;DHT22;17181;51.002;4.096;2023-04-23T12:57:12;14.80;99.90
30385;DHT22;17181;51.002;4.096;2023-04-23T12:59:38;14.80;99.90
30385;DHT22;17181;51.002;4.096;2023-04-23T13:02:04;14.80;99.90
30385;DHT22;17181;51.002;4.096;2023-04-23T13:04:32;14.90;99.90
30385;DHT22;17181;51.002;4.096;2023-04-23T13:06:59;14.70;99.90
30385;DHT22;17181;51.002;4.096;2023-04-23T13:09:25;15.00;99.90
30385;DHT22;17181;51.002;4.096;2023-04-23T13:11:52;15.00;99.90
30385;DHT22;17181;51.002;4.096;2023-04-23T13:14:18;15.10;99.90
30385;DHT22;17181;51.002;4.096;2023-04-23T13:16:45;15.20;99.90
30385;DHT22;17181;51.002;4.096;2023-04-23T13:19:12;15.20;99.90
30385;DHT22;17181;51.002;4.096;2023-04-23T13:21:38;15.30;99.90
30385;DHT22;17181;51.002;4.096;2023-04-23T13:24:04;15.40;99.90
30385;DHT22;17181;51.002;4.096;2023-04-23T13:26:30;15.40;99.90
30385;DHT22;17181;51.002;4.096;2023-04-23T13:28:58;15.50;99.90
30385;DHT22;17181;51.002;4.096;2023-04-23T13:31:24;15.60;99.90
30385;DHT22;17181;51.002;4.096;2023-04-23T13:33:50;15.60;99.90
30385;DHT22;17181;51.002;4.096;2023-04-23T13:36:16;15.70;99.90
30385;DHT22;17181;51.002;4.096;2023-04-23T13:38:42;15.70;99.90
30385;DHT22;17181;51.002;4.096;2023-04-23T13:41:08;15.70;99.90
30385;DHT22;17181;51.002;4.096;2023-04-23T13:43:33;15.70;99.90
30385;DHT22;17181;51.002;4.096;2023-04-23T13:45:59;15.70;99.90
30385;DHT22;17181;51.002;4.096;2023-04-23T13:48:26;15.70;99.90
30385;DHT22;17181;51.002;4.096;2023-04-23T13:50:59;15.70;99.90
30385;DHT22;17181;51.002;4.096;2023-04-23T13:53:25;15.70;99.90
30385;DHT22;17181;51.002;4.096;2023-04-23T13:55:53;15.80;99.90
30385;DHT22;17181;51.002;4.096;2023-04-23T13:58:19;15.70;99.90
30385;DHT22;17181;51.002;4.096;2023-04-23T14:00:45;15.80;99.90
30385;DHT22;17181;51.002;4.096;2023-04-23T14:03:11;15.70;99.90
30385;DHT22;17181;51.002;4.096;2023-04-23T14:05:36;15.70;99.90
30385;DHT22;17181;51.002;4.096;2023-04-23T14:08:03;15.60;99.90
30385;DHT22;17181;51.002;4.096;2023-04-23T14:10:28;15.60;99.90
30385;DHT22;17181;51.002;4.096;2023-04-23T14:12:57;15.50;99.90
30385;DHT22;17181;51.002;4.096;2023-04-23T14:15:23;15.50;99.90
30385;DHT22;17181;51.002;4.096;2023-04-23T14:17:48;15.50;99.90
30385;DHT22;17181;51.002;4.096;2023-04-23T14:20:14;15.40;99.90
30385;DHT22;17181;51.002;4.096;2023-04-23T14:22:41;15.40;99.90
30385;DHT22;17181;51.002;4.096;2023-04-23T14:25:14;15.40;99.90
30385;DHT22;17181;51.002;4.096;2023-04-23T14:27:45;15.50;99.90
30385;DHT22;17181;51.002;4.096;2023-04-23T14:30:19;15.50;99.90
30385;DHT22;17181;51.002;4.096;2023-04-23T14:32:46;15.60;99.90
30385;DHT22;17181;51.002;4.096;2023-04-23T14:35:12;15.70;99.90
30385;DHT22;17181;51.002;4.096;2023-04-23T14:37:40;15.70;99.90
30385;DHT22;17181;51.002;4.096;2023-04-23T14:40:10;15.80;99.90
30385;DHT22;17181;51.002;4.096;2023-04-23T14:42:38;15.90;99.90
30385;DHT22;17181;51.002;4.096;2023-04-23T14:45:04;16.00;99.90
30385;DHT22;17181;51.002;4.096;2023-04-23T14:47:30;16.20;99.90
30385;DHT22;17181;51.002;4.096;2023-04-23T14:49:56;16.30;99.90
30385;DHT22;17181;51.002;4.096;2023-04-23T14:52:24;16.50;99.90
30385;DHT22;17181;51.002;4.096;2023-04-23T14:54:50;16.80;99.90
30385;DHT22;17181;51.002;4.096;2023-04-23T14:57:17;17.00;99.90
30385;DHT22;17181;51.002;4.096;2023-04-23T14:59:43;17.30;99.90
30385;DHT22;17181;51.002;4.096;2023-04-23T15:02:08;17.50;99.90
30385;DHT22;17181;51.002;4.096;2023-04-23T15:04:36;17.70;99.90
30385;DHT22;17181;51.002;4.096;2023-04-23T15:07:02;17.80;99.90
30385;DHT22;17181;51.002;4.096;2023-04-23T15:09:27;17.80;99.90
30385;DHT22;17181;51.002;4.096;2023-04-23T15:11:53;17.80;99.90
30385;DHT22;17181;51.002;4.096;2023-04-23T15:14:23;17.70;99.90
30385;DHT22;17181;51.002;4.096;2023-04-23T15:16:49;17.60;99.90
30385;DHT22;17181;51.002;4.096;2023-04-23T15:19:16;17.50;99.90
30385;DHT22;17181;51.002;4.096;2023-04-23T15:21:42;17.50;99.90
30385;DHT22;17181;51.002;4.096;2023-04-23T15:24:08;17.40;99.90
30385;DHT22;17181;51.002;4.096;2023-04-23T15:26:34;17.40;99.90
30385;DHT22;17181;51.002;4.096;2023-04-23T15:29:00;17.30;99.90
30385;DHT22;17181;51.002;4.096;2023-04-23T15:31:27;17.20;99.90
30385;DHT22;17181;51.002;4.096;2023-04-23T15:33:53;17.10;99.90
30385;DHT22;17181;51.002;4.096;2023-04-23T15:36:18;16.90;99.90
30385;DHT22;17181;51.002;4.096;2023-04-23T15:38:44;16.80;99.90
30385;DHT22;17181;51.002;4.096;2023-04-23T15:41:10;16.70;99.90
30385;DHT22;17181;51.002;4.096;2023-04-23T15:43:38;16.60;99.90
30385;DHT22;17181;51.002;4.096;2023-04-23T15:46:04;16.60;99.90
30385;DHT22;17181;51.002;4.096;2023-04-23T15:48:30;16.50;99.90
30385;DHT22;17181;51.002;4.096;2023-04-23T15:50:56;16.50;99.90
30385;DHT22;17181;51.002;4.096;2023-04-23T15:53:22;16.40;99.90
30385;DHT22;17181;51.002;4.096;2023-04-23T15:55:50;16.40;99.90
30385;DHT22;17181;51.002;4.096;2023-04-23T15:58:17;16.40;99.90
30385;DHT22;17181;51.002;4.096;2023-04-23T16:00:43;16.40;99.90
30385;DHT22;17181;51.002;4.096;2023-04-23T16:03:09;16.30;99.90
30385;DHT22;17181;51.002;4.096;2023-04-23T16:05:35;16.20;99.90
30385;DHT22;17181;51.002;4.096;2023-04-23T16:08:02;16.10;99.90
30385;DHT22;17181;51.002;4.096;2023-04-23T16:10:27;16.00;99.90
30385;DHT22;17181;51.002;4.096;2023-04-23T16:12:56;15.90;99.90
30385;DHT22;17181;51.002;4.096;2023-04-23T16:15:26;15.80;99.90
30385;DHT22;17181;51.002;4.096;2023-04-23T16:17:52;15.80;99.90
30385;DHT22;17181;51.002;4.096;2023-04-23T16:20:23;15.80;99.90
30385;DHT22;17181;51.002;4.096;2023-04-23T16:22:49;15.80;99.90
30385;DHT22;17181;51.002;4.096;2023-04-23T16:25:15;15.80;99.90
30385;DHT22;17181;51.002;4.096;2023-04-23T16:27:41;15.80;99.90
30385;DHT22;17181;51.002;4.096;2023-04-23T16:30:07;15.80;99.90
30385;DHT22;17181;51.002;4.096;2023-04-23T16:32:33;15.70;99.90
30385;DHT22;17181;51.002;4.096;2023-04-23T16:34:59;15.70;99.90
30385;DHT22;17181;51.002;4.096;2023-04-23T16:37:25;15.70;99.90
30385;DHT22;17181;51.002;4.096;2023-04-23T16:39:51;15.60;99.90
30385;DHT22;17181;51.002;4.096;2023-04-23T16:42:17;15.50;99.90
30385;DHT22;17181;51.002;4.096;2023-04-23T16:44:43;15.40;99.90
30385;DHT22;17181;51.002;4.096;2023-04-23T16:47:09;15.30;99.90
